createdAt,value
2018-07-08T00:00:21.957Z,27.46
2018-07-08T00:03:00.212Z,27.46
2018-07-08T00:05:35.381Z,27.44
2018-07-08T00:08:14.975Z,27.54
2018-07-08T00:10:55.588Z,27.04
2018-07-08T00:13:33.210Z,27.52
2018-07-08T00:16:09.556Z,27.41
2018-07-08T00:18:52.254Z,27.28
2018-07-08T00:21:33.478Z,27.09
2018-07-08T00:24:12.170Z,26.81
2018-07-08T00:26:46.349Z,26.79
2018-07-08T00:29:27.911Z,26.84
2018-07-08T00:32:03.389Z,26.70
2018-07-08T00:34:39.180Z,26.63
2018-07-08T00:37:11.669Z,26.70
2018-07-08T00:39:44.506Z,26.71
2018-07-08T00:42:18.449Z,26.60
2018-07-08T00:44:52.923Z,26.50
2018-07-08T00:47:26.634Z,26.52
2018-07-08T00:49:59.788Z,26.39
2018-07-08T00:52:33.456Z,26.41
2018-07-08T00:55:10.583Z,26.37
2018-07-08T01:00:36.877Z,26.23
2018-07-08T01:03:09.907Z,25.87
2018-07-08T01:05:49.295Z,25.93
2018-07-08T01:08:20.409Z,25.68
2018-07-08T01:10:52.607Z,25.79
2018-07-08T01:13:27.673Z,25.66
2018-07-08T01:16:00.900Z,25.58
2018-07-08T01:18:34.136Z,25.59
2018-07-08T01:21:07.918Z,25.53
2018-07-08T01:23:40.371Z,25.45
2018-07-08T01:26:14.141Z,25.42
2018-07-08T01:28:48.151Z,25.43
2018-07-08T01:31:21.389Z,25.44
2018-07-08T01:33:55.258Z,25.48
2018-07-08T01:36:33.125Z,25.56
2018-07-08T01:39:07.103Z,25.49
2018-07-08T01:41:40.630Z,25.65
2018-07-08T01:44:14.705Z,25.64
2018-07-08T01:46:51.272Z,25.62
2018-07-08T01:49:25.326Z,25.58
2018-07-08T01:52:01.324Z,25.62
2018-07-08T01:54:34.652Z,25.60
2018-07-08T01:57:07.015Z,25.58
2018-07-08T01:59:41.288Z,25.63
2018-07-08T02:02:14.833Z,25.60
2018-07-08T02:04:49.880Z,25.57
2018-07-08T02:07:22.003Z,25.46
2018-07-08T02:09:59.655Z,25.52
2018-07-08T02:12:35.256Z,25.47
2018-07-08T02:15:09.241Z,25.50
2018-07-08T02:17:42.494Z,25.40
2018-07-08T02:20:15.650Z,25.35
2018-07-08T02:22:49.747Z,25.38
2018-07-08T02:25:24.532Z,25.33
2018-07-08T02:28:00.396Z,25.24
2018-07-08T02:30:35.406Z,25.16
2018-07-08T02:33:09.433Z,25.03
2018-07-08T02:35:46.645Z,25.08
2018-07-08T02:38:22.027Z,24.89
2018-07-08T02:40:56.028Z,24.42
2018-07-08T02:43:29.351Z,24.99
2018-07-08T02:46:02.671Z,25.02
2018-07-08T02:48:35.665Z,24.99
2018-07-08T02:51:08.872Z,24.88
2018-07-08T02:53:42.027Z,24.84
2018-07-08T02:56:15.447Z,24.83
2018-07-08T02:58:49.857Z,24.84
2018-07-08T03:01:24.415Z,24.86
2018-07-08T03:03:56.668Z,24.92
2018-07-08T03:09:03.433Z,24.89
2018-07-08T03:11:38.529Z,24.79
2018-07-08T03:14:13.216Z,24.75
2018-07-08T03:16:46.449Z,24.67
2018-07-08T03:19:19.934Z,24.66
2018-07-08T03:21:54.681Z,24.65
2018-07-08T03:24:29.159Z,24.71
2018-07-08T03:27:03.362Z,24.69
2018-07-08T03:29:36.899Z,24.95
2018-07-08T03:32:10.137Z,25.01
2018-07-08T03:34:43.761Z,24.93
2018-07-08T03:37:16.999Z,24.87
2018-07-08T03:39:50.136Z,24.87
2018-07-08T03:42:24.539Z,24.98
2018-07-08T03:44:58.484Z,24.80
2018-07-08T03:47:32.559Z,24.78
2018-07-08T03:50:07.224Z,25.00
2018-07-08T03:52:42.201Z,24.91
2018-07-08T03:55:15.232Z,24.97
2018-07-08T03:57:48.228Z,25.04
2018-07-08T04:00:21.227Z,25.16
2018-07-08T04:02:54.505Z,25.25
2018-07-08T04:05:27.654Z,25.40
2018-07-08T04:08:00.937Z,25.58
2018-07-08T04:10:35.219Z,25.91
2018-07-08T04:13:08.917Z,26.19
2018-07-08T04:15:42.320Z,26.54
2018-07-08T04:18:15.900Z,26.94
2018-07-08T04:20:49.091Z,27.22
2018-07-08T04:23:24.226Z,27.61
2018-07-08T04:25:58.094Z,27.88
2018-07-08T04:28:31.453Z,28.24
2018-07-08T04:31:05.999Z,28.45
2018-07-08T04:33:40.126Z,28.60
2018-07-08T04:36:13.517Z,28.83
2018-07-08T04:38:46.741Z,28.75
2018-07-08T04:41:19.702Z,29.21
2018-07-08T04:43:55.410Z,29.29
2018-07-08T04:46:28.861Z,29.34
2018-07-08T04:49:03.096Z,29.55
2018-07-08T04:51:38.769Z,29.71
2018-07-08T04:54:12.775Z,29.95
2018-07-08T04:56:46.815Z,30.11
2018-07-08T04:59:20.443Z,30.24
2018-07-08T05:01:54.565Z,30.23
2018-07-08T05:04:27.789Z,30.33
2018-07-08T05:07:00.992Z,30.35
2018-07-08T05:09:34.245Z,30.42
2018-07-08T05:12:08.059Z,30.70
2018-07-08T05:14:41.444Z,30.95
2018-07-08T05:17:14.740Z,31.10
2018-07-08T05:19:48.477Z,31.22
2018-07-08T05:22:21.761Z,31.45
2018-07-08T05:24:55.036Z,31.60
2018-07-08T05:27:28.843Z,31.64
2018-07-08T05:30:03.576Z,31.62
2018-07-08T05:32:38.099Z,31.56
2018-07-08T05:35:12.491Z,31.60
2018-07-08T05:37:45.579Z,31.67
2018-07-08T05:40:19.167Z,31.54
2018-07-08T05:42:56.199Z,31.49
2018-07-08T05:45:31.587Z,31.58
2018-07-08T05:48:04.862Z,31.51
2018-07-08T05:50:38.062Z,31.69
2018-07-08T05:53:11.958Z,32.02
2018-07-08T05:55:46.860Z,32.28
2018-07-08T05:58:20.063Z,32.38
2018-07-08T06:00:55.831Z,32.74
2018-07-08T06:03:30.056Z,33.05
2018-07-08T06:06:04.215Z,33.25
2018-07-08T06:08:39.673Z,33.41
2018-07-08T06:11:13.069Z,33.56
2018-07-08T06:13:47.405Z,33.43
2018-07-08T06:16:20.798Z,33.56
2018-07-08T06:18:54.861Z,33.58
2018-07-08T06:21:29.774Z,33.89
2018-07-08T06:24:03.897Z,34.16
2018-07-08T06:26:37.166Z,34.15
2018-07-08T06:29:13.321Z,34.19
2018-07-08T06:31:47.208Z,34.34
2018-07-08T06:34:24.002Z,34.17
2018-07-08T06:36:57.417Z,34.36
2018-07-08T06:39:31.683Z,34.31
2018-07-08T06:42:07.235Z,34.21
2018-07-08T06:44:41.201Z,34.16
2018-07-08T06:47:14.493Z,33.93
2018-07-08T06:49:48.350Z,34.06
2018-07-08T06:52:24.376Z,34.06
2018-07-08T06:54:57.950Z,34.24
2018-07-08T06:57:31.250Z,34.34
2018-07-08T07:00:07.204Z,34.30
2018-07-08T07:02:41.585Z,34.34
2018-07-08T07:05:19.599Z,34.85
2018-07-08T07:07:57.554Z,34.89
2018-07-08T07:10:36.311Z,35.71
2018-07-08T07:13:16.487Z,35.61
2018-07-08T07:15:51.517Z,34.98
2018-07-08T07:18:35.164Z,34.59
2018-07-08T07:21:16.657Z,34.50
2018-07-08T07:23:51.469Z,34.83
2018-07-08T07:26:24.665Z,34.90
2018-07-08T07:28:58.738Z,35.19
2018-07-08T07:31:32.323Z,35.80
2018-07-08T07:34:07.815Z,36.01
2018-07-08T07:37:13.613Z,35.14
2018-07-08T07:39:49.433Z,35.21
2018-07-08T07:42:26.420Z,35.02
2018-07-08T07:45:00.530Z,36.00
2018-07-08T07:47:38.460Z,36.44
2018-07-08T07:50:13.291Z,36.86
2018-07-08T07:52:47.831Z,37.26
2018-07-08T07:55:26.737Z,36.90
2018-07-08T07:58:03.407Z,37.19
2018-07-08T08:00:38.936Z,36.69
2018-07-08T08:03:12.214Z,36.86
2018-07-08T08:05:57.540Z,37.10
2018-07-08T08:08:35.773Z,37.39
2018-07-08T08:11:10.245Z,36.83
2018-07-08T08:14:03.084Z,36.88
2018-07-08T08:16:37.473Z,37.44
2018-07-08T08:19:14.244Z,38.27
2018-07-08T08:21:49.370Z,37.58
2018-07-08T08:24:24.099Z,37.55
2018-07-08T08:26:58.244Z,37.52
2018-07-08T08:29:37.443Z,37.14
2018-07-08T08:32:14.531Z,37.12
2018-07-08T08:34:58.019Z,37.24
2018-07-08T08:40:57.210Z,37.24
2018-07-08T08:43:42.237Z,36.31
2018-07-08T08:46:17.259Z,36.30
2018-07-08T08:48:51.222Z,36.92
2018-07-08T08:51:24.485Z,37.57
2018-07-08T08:54:01.565Z,37.59
2018-07-08T08:56:45.127Z,37.05
2018-07-08T08:59:25.021Z,37.26
2018-07-08T09:02:10.808Z,37.69
2018-07-08T09:04:51.344Z,37.72
2018-07-08T09:07:31.213Z,37.27
2018-07-08T09:10:11.399Z,36.91
2018-07-08T09:12:46.916Z,37.24
2018-07-08T09:15:24.223Z,37.47
2018-07-08T09:18:00.790Z,37.31
2018-07-08T09:20:36.226Z,37.19
2018-07-08T09:23:10.174Z,37.16
2018-07-08T09:25:47.816Z,37.62
2018-07-08T09:28:21.157Z,36.98
2018-07-08T09:30:55.728Z,36.59
2018-07-08T09:33:33.570Z,36.46
2018-07-08T09:36:12.803Z,36.47
2018-07-08T09:38:46.437Z,36.66
2018-07-08T09:41:21.862Z,36.51
2018-07-08T09:43:58.729Z,36.20
2018-07-08T09:46:32.467Z,35.84
2018-07-08T09:49:07.413Z,36.00
2018-07-08T09:51:41.991Z,36.19
2018-07-08T09:54:20.525Z,36.82
2018-07-08T09:56:58.834Z,36.91
2018-07-08T09:59:32.370Z,36.89
2018-07-08T10:02:11.628Z,36.80
2018-07-08T10:04:46.275Z,37.08
2018-07-08T10:07:20.672Z,37.30
2018-07-08T10:09:59.164Z,37.24
2018-07-08T10:12:36.680Z,36.75
2018-07-08T10:18:18.153Z,36.48
2018-07-08T10:20:56.540Z,36.74
2018-07-08T10:23:35.605Z,37.27
2018-07-08T10:26:16.709Z,36.61
2018-07-08T10:28:51.596Z,36.08
2018-07-08T10:31:37.906Z,35.91
2018-07-08T10:34:16.490Z,36.09
2018-07-08T10:36:53.427Z,36.49
2018-07-08T10:39:31.350Z,36.58
2018-07-08T10:42:08.205Z,36.64
2018-07-08T10:44:57.568Z,36.42
2018-07-08T10:47:41.541Z,36.62
2018-07-08T10:50:18.049Z,36.90
2018-07-08T10:55:40.544Z,37.14
2018-07-08T10:58:14.016Z,37.09
2018-07-08T11:00:55.267Z,36.83
2018-07-08T11:03:30.342Z,36.63
2018-07-08T11:06:23.736Z,36.53
2018-07-08T11:09:09.015Z,36.63
2018-07-08T11:11:47.616Z,36.75
2018-07-08T11:17:01.215Z,36.31
2018-07-08T11:19:35.348Z,36.61
2018-07-08T11:22:13.228Z,36.78
2018-07-08T11:24:55.649Z,36.72
2018-07-08T11:27:32.369Z,36.73
2018-07-08T11:30:13.862Z,36.75
2018-07-08T11:32:48.373Z,36.80
2018-07-08T11:35:24.432Z,37.02
2018-07-08T11:38:10.332Z,37.15
2018-07-08T11:40:50.684Z,37.35
2018-07-08T11:43:24.478Z,37.12
2018-07-08T11:46:02.601Z,37.52
2018-07-08T11:48:37.475Z,37.79
2018-07-08T11:51:13.898Z,37.48
2018-07-08T11:53:47.122Z,37.49
2018-07-08T11:56:22.442Z,37.63
2018-07-08T11:58:59.202Z,37.47
2018-07-08T12:01:32.373Z,37.30
2018-07-08T12:04:07.930Z,37.61
2018-07-08T12:06:48.402Z,37.80
2018-07-08T12:09:24.683Z,37.54
2018-07-08T12:11:59.249Z,37.61
2018-07-08T12:14:46.918Z,37.81
2018-07-08T12:17:24.368Z,38.14
2018-07-08T12:20:03.781Z,38.43
2018-07-08T12:22:37.486Z,38.24
2018-07-08T12:25:13.341Z,38.27
2018-07-08T12:27:47.483Z,38.47
2018-07-08T12:30:24.203Z,38.61
2018-07-08T12:32:57.373Z,38.56
2018-07-08T12:35:30.848Z,38.80
2018-07-08T12:38:04.788Z,39.10
2018-07-08T12:40:40.920Z,39.13
2018-07-08T12:43:16.397Z,39.41
2018-07-08T12:45:57.447Z,39.28
2018-07-08T12:48:42.221Z,39.90
2018-07-08T12:51:17.471Z,40.03
2018-07-08T12:53:56.644Z,40.03
2018-07-08T12:56:54.444Z,40.08
2018-07-08T12:59:29.335Z,39.52
2018-07-08T13:02:05.211Z,39.03
2018-07-08T13:04:42.602Z,39.54
2018-07-08T13:07:17.919Z,39.33
2018-07-08T13:09:54.812Z,39.19
2018-07-08T13:12:46.585Z,39.71
2018-07-08T13:15:30.020Z,40.05
2018-07-08T13:18:05.492Z,40.25
2018-07-08T13:20:39.485Z,40.50
2018-07-08T13:23:13.403Z,40.34
2018-07-08T13:25:52.090Z,40.21
2018-07-08T13:28:29.348Z,39.59
2018-07-08T13:31:05.806Z,39.41
2018-07-08T13:33:46.305Z,39.25
2018-07-08T13:36:19.934Z,39.66
2018-07-08T13:38:59.717Z,39.99
2018-07-08T13:41:48.315Z,40.22
2018-07-08T13:44:34.201Z,40.61
2018-07-08T13:47:17.612Z,40.48
2018-07-08T13:49:52.922Z,40.42
2018-07-08T13:52:29.797Z,40.71
2018-07-08T13:55:04.807Z,41.25
2018-07-08T13:57:42.118Z,41.26
2018-07-08T14:00:42.817Z,40.97
2018-07-08T14:06:40.842Z,40.71
2018-07-08T14:09:15.162Z,40.72
2018-07-08T14:11:50.877Z,40.71
2018-07-08T14:14:25.757Z,41.02
2018-07-08T14:17:01.717Z,41.54
2018-07-08T14:19:36.105Z,41.85
2018-07-08T14:22:14.526Z,41.94
2018-07-08T14:24:52.501Z,42.24
2018-07-08T14:27:26.815Z,41.85
2018-07-08T14:30:07.525Z,41.58
2018-07-08T14:32:41.692Z,41.54
2018-07-08T14:35:15.605Z,41.52
2018-07-08T14:37:55.929Z,41.81
2018-07-08T14:40:31.311Z,42.08
2018-07-08T14:43:04.711Z,42.15
2018-07-08T14:48:21.017Z,42.68
2018-07-08T14:50:58.397Z,42.86
2018-07-08T14:53:36.551Z,42.91
2018-07-08T14:56:10.596Z,43.06
2018-07-08T14:58:45.339Z,43.35
2018-07-08T15:01:20.946Z,43.58
2018-07-08T15:03:57.285Z,43.83
2018-07-08T15:06:30.870Z,43.56
2018-07-08T15:09:11.259Z,43.80
2018-07-08T15:11:51.730Z,43.25
2018-07-08T15:14:28.960Z,42.93
2018-07-08T15:17:07.273Z,42.65
2018-07-08T15:19:41.837Z,42.40
2018-07-08T15:22:17.832Z,42.15
2018-07-08T15:24:51.244Z,42.17
2018-07-08T15:27:26.390Z,42.42
2018-07-08T15:30:14.926Z,42.52
2018-07-08T15:32:51.442Z,43.04
2018-07-08T15:35:28.217Z,43.54
2018-07-08T15:38:04.512Z,43.33
2018-07-08T15:40:41.100Z,42.92
2018-07-08T15:43:27.559Z,42.77
2018-07-08T15:46:06.289Z,42.89
2018-07-08T15:51:34.393Z,43.26
2018-07-08T15:54:14.521Z,43.49
2018-07-08T15:56:49.321Z,43.68
2018-07-08T15:59:25.260Z,44.01
2018-07-08T16:01:58.533Z,43.87
2018-07-08T16:04:32.214Z,43.69
2018-07-08T16:07:08.218Z,43.52
2018-07-08T16:09:45.481Z,43.26
2018-07-08T16:12:22.652Z,42.81
2018-07-08T16:14:59.814Z,42.58
2018-07-08T16:17:34.106Z,42.62
2018-07-08T16:20:08.690Z,42.77
2018-07-08T16:22:42.709Z,43.00
2018-07-08T16:25:16.708Z,43.20
2018-07-08T16:27:51.516Z,43.48
2018-07-08T16:30:26.262Z,43.67
2018-07-08T16:33:03.320Z,43.89
2018-07-08T16:35:39.078Z,44.27
2018-07-08T16:38:15.124Z,44.58
2018-07-08T16:40:54.729Z,44.56
2018-07-08T16:43:43.380Z,44.25
2018-07-08T16:46:30.251Z,44.25
2018-07-08T16:49:04.337Z,44.27
2018-07-08T16:51:40.681Z,44.28
2018-07-08T16:54:16.927Z,44.34
2018-07-08T16:56:54.512Z,44.04
2018-07-08T16:59:35.226Z,43.92
2018-07-08T17:02:16.345Z,43.72
2018-07-08T17:04:51.512Z,43.65
2018-07-08T17:07:26.494Z,43.36
2018-07-08T17:10:06.612Z,43.44
2018-07-08T17:12:51.082Z,43.38
2018-07-08T17:15:29.255Z,43.14
2018-07-08T17:18:56.695Z,43.25
2018-07-08T17:21:34.842Z,42.99
2018-07-08T17:24:15.113Z,43.23
2018-07-08T17:26:48.294Z,43.13
2018-07-08T17:29:29.993Z,42.96
2018-07-08T17:32:04.856Z,42.62
2018-07-08T17:34:39.570Z,42.22
2018-07-08T17:37:14.537Z,41.97
2018-07-08T17:39:48.902Z,41.58
2018-07-08T17:42:23.610Z,41.21
2018-07-08T17:45:05.364Z,41.00
2018-07-08T17:47:39.637Z,40.97
2018-07-08T17:50:14.227Z,40.98
2018-07-08T17:52:52.983Z,40.82
2018-07-08T17:55:30.093Z,40.81
2018-07-08T17:58:06.391Z,40.82
2018-07-08T18:00:43.948Z,40.30
2018-07-08T18:03:32.300Z,39.72
2018-07-08T18:06:21.254Z,39.48
2018-07-08T18:08:56.145Z,39.20
2018-07-08T18:11:33.167Z,38.81
2018-07-08T18:14:09.303Z,38.03
2018-07-08T18:16:45.319Z,37.40
2018-07-08T18:19:21.781Z,36.94
2018-07-08T18:22:03.695Z,36.61
2018-07-08T18:24:37.882Z,36.27
2018-07-08T18:27:18.313Z,35.82
2018-07-08T18:29:53.327Z,35.61
2018-07-08T18:32:30.244Z,35.47
2018-07-08T18:35:10.629Z,35.33
2018-07-08T18:37:46.161Z,35.02
2018-07-08T18:40:24.961Z,34.99
2018-07-08T18:43:01.046Z,34.77
2018-07-08T18:45:39.236Z,34.61
2018-07-08T18:48:14.547Z,34.35
2018-07-08T18:50:49.611Z,34.19
2018-07-08T18:53:25.835Z,34.08
2018-07-08T18:56:01.320Z,33.92
2018-07-08T18:58:38.358Z,33.85
2018-07-08T19:01:15.437Z,33.68
2018-07-08T19:03:52.485Z,33.59
2018-07-08T19:06:27.336Z,33.43
2018-07-08T19:09:22.463Z,33.33
2018-07-08T19:12:00.894Z,33.22
2018-07-08T19:14:38.669Z,33.09
2018-07-08T19:17:14.217Z,32.93
2018-07-08T19:19:51.616Z,32.79
2018-07-08T19:22:32.351Z,32.75
2018-07-08T19:25:14.011Z,32.76
2018-07-08T19:27:50.365Z,32.53
2018-07-08T19:30:23.567Z,32.39
2018-07-08T19:32:59.366Z,32.26
2018-07-08T19:35:36.829Z,32.15
2018-07-08T19:38:11.552Z,32.10
2018-07-08T19:40:45.541Z,31.62
2018-07-08T19:43:21.987Z,32.02
2018-07-08T19:45:55.386Z,31.88
2018-07-08T19:48:32.028Z,31.76
2018-07-08T19:51:12.433Z,31.87
2018-07-08T19:53:47.091Z,31.71
2018-07-08T19:56:25.908Z,31.76
2018-07-08T19:59:02.631Z,31.69
2018-07-08T20:01:41.158Z,31.67
2018-07-08T20:04:17.472Z,31.64
2018-07-08T20:06:57.009Z,31.47
2018-07-08T20:09:32.221Z,31.45
2018-07-08T20:12:06.628Z,31.42
2018-07-08T20:14:42.017Z,31.30
2018-07-08T20:17:21.845Z,31.33
2018-07-08T20:19:57.428Z,31.16
2018-07-08T20:22:33.502Z,31.08
2018-07-08T20:25:28.131Z,31.01
2018-07-08T20:28:04.711Z,30.77
2018-07-08T20:30:46.997Z,30.75
2018-07-08T20:33:31.382Z,30.78
2018-07-08T20:36:06.680Z,30.60
2018-07-08T20:38:50.159Z,30.53
2018-07-08T20:44:19.099Z,30.43
2018-07-08T20:47:05.419Z,30.45
2018-07-08T20:50:03.118Z,30.44
2018-07-08T20:52:48.725Z,30.34
2018-07-08T20:55:25.145Z,30.12
2018-07-08T20:58:01.376Z,30.10
2018-07-08T21:00:36.742Z,29.98
2018-07-08T21:03:11.483Z,30.00
2018-07-08T21:05:49.941Z,29.94
2018-07-08T21:08:24.466Z,29.94
2018-07-08T21:11:24.276Z,29.87
2018-07-08T21:14:01.748Z,29.85
2018-07-08T21:16:38.279Z,29.76
2018-07-08T21:19:14.746Z,29.76
2018-07-08T21:21:54.372Z,29.72
2018-07-08T21:24:29.039Z,29.69
2018-07-08T21:27:06.802Z,29.70
2018-07-08T21:29:40.959Z,29.51
2018-07-08T21:32:16.862Z,29.50
2018-07-08T21:37:41.934Z,29.44
2018-07-08T21:40:17.150Z,29.40
2018-07-08T21:43:10.722Z,29.53
2018-07-08T21:45:55.214Z,29.32
2018-07-08T21:48:37.158Z,29.44
2018-07-08T21:51:16.791Z,29.49
2018-07-08T21:53:50.258Z,29.56
2018-07-08T21:56:24.751Z,29.51
2018-07-08T21:59:01.500Z,29.42
2018-07-08T22:09:15.306Z,29.48
2018-07-08T22:11:49.413Z,29.18
2018-07-08T22:14:28.223Z,29.03
2018-07-08T22:17:04.899Z,29.11
2018-07-08T22:19:40.952Z,29.08
2018-07-08T22:22:16.514Z,29.17
2018-07-08T22:24:53.025Z,29.11
2018-07-08T22:27:32.541Z,29.15
2018-07-08T22:30:08.289Z,29.12
2018-07-08T22:32:55.550Z,29.09
2018-07-08T22:35:32.801Z,29.06
2018-07-08T22:38:07.459Z,28.99
2018-07-08T22:40:43.202Z,28.96
2018-07-08T22:43:17.409Z,28.94
2018-07-08T22:45:54.654Z,28.84
2018-07-08T22:48:30.353Z,28.99
2018-07-08T22:51:09.133Z,28.79
2018-07-08T22:53:42.580Z,28.82
2018-07-08T22:56:17.661Z,28.76
2018-07-08T22:58:55.090Z,28.76
2018-07-08T23:01:41.298Z,28.80
2018-07-08T23:04:21.270Z,28.75
2018-07-08T23:07:23.567Z,28.73
2018-07-08T23:12:56.021Z,28.66
2018-07-08T23:15:31.875Z,28.61
2018-07-08T23:18:11.495Z,28.65
2018-07-08T23:20:51.517Z,28.68
2018-07-08T23:23:46.852Z,28.46
2018-07-08T23:26:21.421Z,28.41
2018-07-08T23:28:59.407Z,28.39
2018-07-08T23:31:41.872Z,28.41
2018-07-08T23:34:23.223Z,28.46
2018-07-08T23:37:03.064Z,28.45
2018-07-08T23:39:39.234Z,28.39
2018-07-08T23:42:15.647Z,28.37
2018-07-08T23:44:49.067Z,28.30
2018-07-08T23:47:23.249Z,28.37
2018-07-08T23:49:56.817Z,28.21
2018-07-08T23:52:32.009Z,28.32
2018-07-08T23:55:07.769Z,28.21
2018-07-08T23:57:42.862Z,28.10
